• Join FlightAware (Why Join?)
  • Login
  • US Flag 
04:25PM EDT


 

Airport Tracker/Info


-or-


 

Live Flight TrackerFlight Track Log ✈ EJA396 ✈ 01-Aug-2013 ✈ KLGB - KLAS

Flight Track Log - Related Links

Times and Time Zones

All times are in EDT time to prevent confusion due to time zone crossing. See the EJA396 flight status page for this flight to view local times or setup timezone preferences in your user account.

Time Position Orientation Groundspeed Altitude Reporting Facility
EDT Latitude Longitude Course Direction KTS MPH feet Rate Location/Type
07:57PM 33.7628 -118.2308 189° South 226 260 5,200  Level Los Angeles Center
07:58PM 33.6958 -118.2458 191° South 237 273 8,500 3,600 Climbing Los Angeles Center
07:59PM 33.6631 -118.1814 121° Southeast 266 306 12,800 3,480 Climbing Los Angeles Center
08:01PM 33.7369 -118.1039 41° Northeast 299 344 16,500 2,640 Climbing Los Angeles Center
08:02PM 33.8314 -118.0153 38° Northeast 361 415 18,900 1,860 Climbing Los Angeles Center
08:03PM 33.9006 -117.9494 38° Northeast 383 441 20,400 1,680 Climbing Los Angeles Center
08:04PM 34.0111 -117.8481 37° Northeast 411 473 22,500 2,040 Climbing Los Angeles Center
08:05PM 34.1233 -117.7364 39° Northeast 431 496 24,700 1,920 Climbing Los Angeles Center
08:06PM 34.2053 -117.6214 49° Northeast 449 517 26,500 1,740 Climbing Los Angeles Center
08:07PM 34.2906 -117.5044 49° Northeast 461 531 28,300 1,200 Climbing Los Angeles Center
08:08PM 34.3786 -117.3839 48° Northeast 475 547 29,000 300 Climbing Los Angeles Center
08:09PM 34.4744 -117.2536 48° Northeast 496 571 29,000  Level Los Angeles Center
08:10PM 34.5672 -117.1250 49° Northeast 507 583 29,000  Level Los Angeles Center
08:11PM 34.6589 -116.9972 49° Northeast 507 583 29,000  Level Los Angeles Center
08:12PM 34.7706 -116.8431 49° Northeast 509 586 29,000  Level Los Angeles Center
08:13PM 34.8622 -116.7128 49° Northeast 511 588 29,000 -360 Level Los Angeles Center
08:14PM 34.9567 -116.5828 48° Northeast 515 593 28,300 -1,920 Descending Los Angeles Center
08:15PM 35.0494 -116.4689 45° Northeast 485 558 25,100 -2,160 Descending Los Angeles Center
08:16PM 35.1183 -116.3797 47° Northeast 466 536 23,900 -540 Descending Los Angeles Center
08:17PM 35.2239 -116.2453 46° Northeast 459 528 24,000  Climbing Los Angeles Center
08:18PM 35.3347 -116.1089 45° Northeast 468 539 24,000 -900 Level Los Angeles Center
08:19PM 35.4247 -115.9944 46° Northeast 469 540 22,200 -2,220 Descending Los Angeles Center
08:20PM 35.5089 -115.8931 44° Northeast 442 509 19,400 -3,240 Descending Los Angeles Center
08:21PM 35.5808 -115.8058 45° Northeast 407 468 16,500 -3,540 Descending Los Angeles Center
08:22PM 35.6381 -115.7294 47° Northeast 367 422 13,500 -1,860 Descending Los Angeles Center
08:23PM 35.7056 -115.6417 47° Northeast 330 380 13,000 -300 Descending Los Angeles Center
08:24PM 35.7731 -115.5750 39° Northeast 319 367 13,000  Level Los Angeles Center
08:25PM 35.8672 -115.5708 North 324 373 13,000 -60 Level Los Angeles Center
08:26PM 35.9531 -115.5592 North 301 346 12,900 -420 Descending Los Angeles Center
08:26PM 35.9786 -115.5347 38° Northeast 311 358 12,400 -1,020 Descending Los Angeles Center
08:27PM 36.0014 -115.4717 66° East 320 368 11,900 -780 Descending Los Angeles Center
08:27PM 36.0122 -115.4342 70° East 317 365 11,600 -900 Descending Los Angeles Center
08:28PM 36.0300 -115.3747 70° East 299 344 11,000 -1,020 Descending Los Angeles Center
08:28PM 36.0289 -115.3378 92° East 300 345 10,600 -1,140 Descending Los Angeles Center
08:30PM 36.0186 -115.2214 96° East 288 331 9,200 -1,200 Descending Los Angeles Center
08:31PM 36.0122 -115.1264 95° East 281 323 8,100 -1,560 Descending Los Angeles Center
08:32PM 36.0064 -115.0353 94° East 273 314 6,000 -1,020 Descending Los Angeles Center
08:33PM 36.0225 -114.9756 72° East 241 277 6,000 -300 Level Los Angeles Center
08:34PM 36.0933 -114.9594 10° North 220 253 5,500 -540 Descending Los Angeles Center
08:35PM 36.1300 -114.9922 324° Northwest 204 235 4,900 -960 Descending Los Angeles Center
08:36PM 36.1358 -115.0589 276° West 198 228 3,600 -720 Descending Los Angeles Center
08:37PM 36.1411 -115.1175 276° West 187 215 3,500 -600 Descending Los Angeles Center
08:38PM 36.1092 -115.1519 221° Southwest 115 132 2,300 -660 Descending Los Angeles Center
08:39PM 36.0911 -115.1608 202° Southwest 126 145 2,200 -180 Descending Los Angeles Center
08:41PM 36.0801 -115.1523 96° East  Level Estimated